Time;durP1;ratioP1;P1;durP2;ratioP2;P2;SDS_P1;SDS_P2;PMS_P1;PMS_P2;Temp;Humidity;BMP_temperature;BMP_pressure;BME280_temperature;BME280_humidity;BME280_pressure;Samples;Min_cycle;Max_cycle;Signal;HPM_P1;HPM_P2
2021/04/24 00:01:41;;;;;;;6.63;4.70;;;6.20;83.30;;;;;;5053923;28;20033;-76
2021/04/24 00:04:06;;;;;;;7.32;5.38;;;6.20;83.50;;;;;;5054101;28;20025;-75
2021/04/24 00:06:33;;;;;;;8.40;4.65;;;6.10;83.50;;;;;;5054997;28;20099;-75
2021/04/24 00:09:00;;;;;;;8.30;5.10;;;6.10;83.90;;;;;;5053649;28;20029;-75
2021/04/24 00:11:27;;;;;;;6.07;4.13;;;6.00;84.00;;;;;;5055010;28;20100;-76
2021/04/24 00:13:53;;;;;;;9.77;5.55;;;6.00;84.00;;;;;;5055195;28;20021;-76
2021/04/24 00:16:20;;;;;;;9.82;5.20;;;5.90;84.10;;;;;;5054933;28;20352;-76
2021/04/24 00:18:46;;;;;;;6.50;4.90;;;5.80;84.60;;;;;;5054468;28;20116;-75
2021/04/24 00:21:12;;;;;;;9.02;5.53;;;5.80;84.70;;;;;;5053381;28;20158;-74
2021/04/24 00:23:37;;;;;;;10.35;5.40;;;5.80;84.80;;;;;;5054697;28;20025;-75
2021/04/24 00:26:04;;;;;;;8.95;5.45;;;5.70;85.00;;;;;;5054942;28;20025;-74
2021/04/24 00:28:30;;;;;;;11.32;5.80;;;5.60;85.10;;;;;;5053432;28;20028;-75
2021/04/24 00:30:56;;;;;;;11.27;5.65;;;5.60;85.20;;;;;;5054216;28;20029;-75
2021/04/24 00:33:21;;;;;;;10.60;5.53;;;5.50;85.40;;;;;;5052834;28;20074;-75
2021/04/24 00:35:47;;;;;;;11.30;6.25;;;5.50;85.60;;;;;;5052808;28;20539;-76
2021/04/24 00:38:13;;;;;;;8.85;5.85;;;5.50;85.80;;;;;;5052391;28;20470;-76
2021/04/24 00:40:39;;;;;;;11.23;5.80;;;5.40;85.90;;;;;;5052621;28;20053;-76
2021/04/24 00:43:05;;;;;;;10.05;5.53;;;5.40;86.10;;;;;;5052724;28;20017;-76
2021/04/24 00:45:31;;;;;;;12.35;5.50;;;5.30;86.60;;;;;;5053465;28;20059;-76
2021/04/24 00:47:58;;;;;;;9.70;5.55;;;5.20;86.70;;;;;;5052702;28;20059;-76
2021/04/24 00:50:31;;;;;;;7.78;5.43;;;5.20;86.80;;;;;;5052590;28;20033;-76
2021/04/24 00:52:57;;;;;;;8.95;5.00;;;5.20;86.90;;;;;;5052700;28;20025;-75
2021/04/24 00:55:23;;;;;;;8.80;5.38;;;5.20;87.00;;;;;;5052589;28;20039;-76
2021/04/24 00:57:49;;;;;;;10.25;4.95;;;5.10;87.10;;;;;;5052262;28;20032;-76
2021/04/24 01:00:16;;;;;;;12.13;5.05;;;5.00;87.40;;;;;;5052220;28;20025;-76
2021/04/24 01:02:43;;;;;;;8.15;4.95;;;5.00;87.50;;;;;;5052394;28;20029;-75
2021/04/24 01:05:19;;;;;;;7.25;5.05;;;5.00;87.60;;;;;;5052266;28;20029;-76
2021/04/24 01:07:45;;;;;;;8.48;4.80;;;4.90;87.70;;;;;;5053388;28;20077;-75
2021/04/24 01:10:11;;;;;;;8.50;5.20;;;4.90;87.80;;;;;;5053471;28;20037;-76
2021/04/24 01:12:38;;;;;;;7.47;4.60;;;4.90;87.90;;;;;;5052207;28;20032;-75
2021/04/24 01:15:07;;;;;;;7.28;4.70;;;4.90;87.90;;;;;;5052217;28;20115;-76
2021/04/24 01:17:32;;;;;;;9.02;5.47;;;4.80;87.80;;;;;;5051684;28;20039;-76
2021/04/24 01:19:58;;;;;;;8.40;5.28;;;4.80;87.90;;;;;;5052221;28;20028;-76
2021/04/24 01:22:24;;;;;;;8.60;4.32;;;4.80;87.90;;;;;;5053102;28;20459;-75
2021/04/24 01:24:50;;;;;;;7.72;5.22;;;4.80;88.10;;;;;;5052016;28;20025;-76
2021/04/24 01:27:16;;;;;;;8.77;4.88;;;4.70;88.10;;;;;;5051910;28;20036;-76
2021/04/24 01:29:42;;;;;;;9.02;5.38;;;4.60;88.30;;;;;;5052137;28;20029;-76
2021/04/24 01:32:09;;;;;;;7.88;4.50;;;4.60;88.30;;;;;;5052298;28;20475;-76
2021/04/24 01:34:35;;;;;;;11.40;4.97;;;4.50;88.50;;;;;;5053860;28;20021;-76
2021/04/24 01:37:02;;;;;;;9.23;5.00;;;4.60;88.40;;;;;;5059645;28;20035;-76
2021/04/24 01:39:29;;;;;;;12.70;4.85;;;4.50;88.50;;;;;;5070805;28;20442;-76
2021/04/24 01:41:55;;;;;;;10.07;5.97;;;4.50;88.40;;;;;;5072560;28;20051;-76
2021/04/24 01:44:21;;;;;;;7.85;5.13;;;4.50;88.30;;;;;;5072704;28;20055;-75
2021/04/24 01:46:47;;;;;;;11.40;4.63;;;4.50;88.40;;;;;;5073617;28;20050;-76
2021/04/24 01:49:13;;;;;;;6.05;4.00;;;4.50;88.30;;;;;;5072091;28;20052;-76
2021/04/24 01:51:39;;;;;;;7.57;4.40;;;4.50;88.10;;;;;;5072160;28;20044;-76
2021/04/24 01:54:06;;;;;;;9.13;4.38;;;4.50;88.20;;;;;;5072192;28;20475;-76
2021/04/24 01:56:44;;;;;;;8.57;5.53;;;4.40;88.30;;;;;;5072206;28;20047;-76
2021/04/24 01:59:09;;;;;;;6.32;4.38;;;4.40;88.10;;;;;;5051930;28;20052;-76
2021/04/24 02:01:35;;;;;;;8.13;4.88;;;4.40;88.10;;;;;;5052454;28;20064;-76
2021/04/24 02:04:01;;;;;;;6.57;4.50;;;4.40;88.20;;;;;;5052046;28;20040;-76
2021/04/24 02:06:26;;;;;;;7.47;4.82;;;4.30;88.20;;;;;;5052348;28;20082;-75
2021/04/24 02:08:52;;;;;;;8.60;4.25;;;4.30;88.30;;;;;;5053579;28;20383;-76
2021/04/24 02:11:18;;;;;;;6.82;4.60;;;4.20;88.60;;;;;;5052316;28;20478;-75
2021/04/24 02:13:44;;;;;;;7.03;4.80;;;4.20;88.50;;;;;;5051999;28;20021;-75
2021/04/24 02:16:12;;;;;;;6.40;4.68;;;4.20;88.60;;;;;;5051838;28;20032;-76
2021/04/24 02:18:37;;;;;;;7.93;5.00;;;4.10;88.60;;;;;;5051483;28;20052;-76
2021/04/24 02:21:04;;;;;;;7.93;5.05;;;4.10;88.80;;;;;;5052563;28;20036;-76
2021/04/24 02:23:35;;;;;;;11.10;5.43;;;4.10;88.60;;;;;;5052119;28;20107;-76
2021/04/24 02:26:01;;;;;;;7.95;4.32;;;4.20;88.50;;;;;;5052202;28;20056;-76
2021/04/24 02:28:27;;;;;;;6.80;5.03;;;4.20;88.50;;;;;;5051894;28;20056;-76
2021/04/24 02:30:53;;;;;;;7.60;4.97;;;4.20;88.30;;;;;;5051219;28;20086;-75
2021/04/24 02:33:19;;;;;;;8.75;4.68;;;4.20;88.20;;;;;;5052034;28;20021;-76
2021/04/24 02:35:45;;;;;;;8.93;5.10;;;4.10;88.30;;;;;;5056468;28;20108;-76
2021/04/24 02:38:15;;;;;;;9.13;4.78;;;4.10;88.40;;;;;;5054688;28;20497;-76
2021/04/24 02:40:41;;;;;;;8.43;4.90;;;4.10;88.50;;;;;;5055280;28;20490;-75
2021/04/24 02:43:06;;;;;;;8.38;4.88;;;4.10;88.40;;;;;;5055226;28;20033;-76
2021/04/24 02:45:32;;;;;;;8.65;5.20;;;4.10;88.40;;;;;;5054636;28;20479;-76
2021/04/24 02:47:58;;;;;;;7.88;5.05;;;4.10;88.50;;;;;;5054866;28;20025;-75
2021/04/24 02:50:23;;;;;;;9.48;5.25;;;4.00;88.80;;;;;;5054807;28;20773;-75
2021/04/24 02:52:49;;;;;;;10.60;5.72;;;3.90;89.00;;;;;;5054911;28;20025;-76
2021/04/24 02:55:16;;;;;;;9.35;4.93;;;4.00;89.00;;;;;;5054672;28;20467;-76
2021/04/24 02:57:42;;;;;;;9.38;4.88;;;3.90;88.90;;;;;;5055961;28;20482;-76
2021/04/24 03:00:11;;;;;;;8.40;4.80;;;3.90;89.00;;;;;;5054652;28;20035;-76
2021/04/24 03:02:36;;;;;;;10.93;5.10;;;3.90;89.00;;;;;;5055842;28;20058;-76
2021/04/24 03:05:08;;;;;;;12.82;5.45;;;4.00;89.00;;;;;;5054498;28;20028;-75
2021/04/24 03:07:34;;;;;;;9.32;5.10;;;4.00;88.90;;;;;;5054671;28;20025;-75
2021/04/24 03:09:59;;;;;;;9.80;5.18;;;3.90;88.90;;;;;;5054602;28;20102;-75
2021/04/24 03:12:25;;;;;;;7.43;4.88;;;3.90;89.00;;;;;;5054386;28;20395;-75
2021/04/24 03:14:50;;;;;;;10.35;6.28;;;3.90;89.10;;;;;;5054300;28;20099;-76
2021/04/24 03:17:16;;;;;;;11.60;7.70;;;3.90;89.10;;;;;;5054018;28;20116;-76
2021/04/24 03:19:42;;;;;;;12.20;8.27;;;3.90;89.20;;;;;;5053948;28;20075;-76
2021/04/24 03:22:09;;;;;;;10.00;6.82;;;3.90;89.20;;;;;;5054275;28;20463;-76
2021/04/24 03:24:34;;;;;;;13.43;7.22;;;3.90;89.30;;;;;;5054191;28;20453;-76
2021/04/24 03:27:00;;;;;;;9.48;6.82;;;3.80;89.40;;;;;;5054068;28;20113;-75
2021/04/24 03:29:25;;;;;;;8.45;5.63;;;3.80;89.60;;;;;;5055683;28;20039;-75
2021/04/24 03:31:51;;;;;;;8.00;5.90;;;3.90;89.60;;;;;;5054114;28;20031;-76
2021/04/24 03:34:17;;;;;;;9.65;6.13;;;3.90;89.60;;;;;;5053936;28;20028;-75
2021/04/24 03:36:43;;;;;;;12.73;6.22;;;3.90;89.40;;;;;;5053605;28;20071;-76
2021/04/24 03:39:08;;;;;;;10.07;6.35;;;3.90;89.60;;;;;;5053966;28;20057;-75
2021/04/24 03:41:34;;;;;;;14.57;7.53;;;3.90;89.90;;;;;;5053863;28;20056;-75
2021/04/24 03:44:00;;;;;;;10.90;6.05;;;3.90;89.80;;;;;;5053788;28;20030;-75
2021/04/24 03:46:25;;;;;;;13.95;6.90;;;4.00;90.00;;;;;;5053431;28;20767;-75
2021/04/24 03:48:51;;;;;;;9.07;6.38;;;4.00;89.80;;;;;;5054888;28;20468;-76
2021/04/24 03:51:17;;;;;;;11.65;6.90;;;4.10;89.70;;;;;;5054918;28;20467;-76
2021/04/24 03:53:42;;;;;;;13.45;7.00;;;4.10;89.60;;;;;;5053746;28;20387;-75
2021/04/24 03:56:08;;;;;;;13.65;6.63;;;4.10;89.50;;;;;;5053272;28;20115;-75
2021/04/24 03:58:34;;;;;;;8.85;5.80;;;4.30;89.50;;;;;;5053545;28;20029;-75
2021/04/24 04:00:59;;;;;;;12.90;6.65;;;4.30;89.30;;;;;;5053507;28;20029;-75
2021/04/24 04:03:25;;;;;;;17.88;9.32;;;4.40;88.90;;;;;;5053399;28;20108;-76
2021/04/24 04:05:51;;;;;;;36.53;20.40;;;4.50;88.50;;;;;;5054710;28;20021;-76
2021/04/24 04:08:16;;;;;;;29.85;16.40;;;4.60;88.20;;;;;;5053345;28;20475;-76
2021/04/24 04:10:44;;;;;;;39.10;24.58;;;4.50;88.30;;;;;;5053296;28;20025;-76
2021/04/24 04:13:11;;;;;;;11.32;7.82;;;4.60;88.30;;;;;;5053417;28;20043;-75
2021/04/24 04:15:38;;;;;;;8.05;5.40;;;4.60;88.60;;;;;;5056723;28;20025;-75
2021/04/24 04:18:08;;;;;;;9.85;4.80;;;4.60;88.70;;;;;;5054958;28;20142;-76
2021/04/24 04:20:38;;;;;;;7.75;4.57;;;4.70;88.00;;;;;;5053208;28;20520;-75
2021/04/24 04:23:04;;;;;;;6.55;4.50;;;4.80;88.00;;;;;;5053062;28;20149;-76
2021/04/24 04:25:30;;;;;;;7.10;4.25;;;4.80;88.20;;;;;;5052917;28;20052;-76
2021/04/24 04:27:56;;;;;;;7.63;4.95;;;4.80;88.20;;;;;;5053223;28;20029;-76
2021/04/24 04:30:23;;;;;;;7.00;4.00;;;4.90;88.10;;;;;;5053288;28;20547;-76
2021/04/24 04:32:49;;;;;;;11.90;4.85;;;5.00;87.90;;;;;;5054577;28;20025;-76
2021/04/24 04:35:15;;;;;;;6.13;3.95;;;5.00;87.80;;;;;;5054399;28;20475;-76
2021/04/24 04:37:41;;;;;;;6.63;4.80;;;5.10;87.80;;;;;;5052974;28;20025;-76
2021/04/24 04:40:09;;;;;;;9.45;4.85;;;5.20;87.40;;;;;;5053043;28;20040;-76
2021/04/24 04:42:35;;;;;;;5.82;4.05;;;5.30;87.20;;;;;;5054022;28;20521;-76
2021/04/24 04:45:01;;;;;;;5.38;4.30;;;5.40;86.90;;;;;;5054237;28;20051;-76
2021/04/24 04:47:27;;;;;;;7.40;4.03;;;5.50;87.00;;;;;;5053395;28;20021;-76
2021/04/24 04:49:53;;;;;;;6.22;4.03;;;5.70;86.10;;;;;;5053000;28;20051;-76
2021/04/24 04:52:19;;;;;;;11.48;4.50;;;5.90;85.90;;;;;;5054281;28;20017;-76
2021/04/24 04:54:45;;;;;;;4.95;4.00;;;5.90;85.90;;;;;;5054170;28;20055;-74
2021/04/24 04:57:11;;;;;;;5.95;4.10;;;6.10;85.20;;;;;;5053016;28;20032;-76
2021/04/24 04:59:36;;;;;;;5.63;4.18;;;6.20;84.90;;;;;;5052680;28;20075;-75
2021/04/24 05:02:02;;;;;;;6.35;4.05;;;6.20;84.90;;;;;;5053887;28;20095;-76
2021/04/24 05:04:28;;;;;;;5.97;3.70;;;6.40;83.80;;;;;;5053936;28;20036;-75
2021/04/24 05:06:53;;;;;;;5.03;3.40;;;6.50;83.30;;;;;;5052771;28;20087;-76
2021/04/24 05:09:22;;;;;;;5.75;3.75;;;6.50;83.70;;;;;;5052673;28;20029;-75
2021/04/24 05:11:49;;;;;;;5.53;3.70;;;6.60;83.10;;;;;;5052566;28;20032;-75
2021/04/24 05:14:14;;;;;;;6.85;4.32;;;6.70;82.90;;;;;;5051850;28;20467;-76
2021/04/24 05:16:40;;;;;;;5.03;3.72;;;6.70;82.60;;;;;;5056746;28;20032;-75
2021/04/24 05:19:06;;;;;;;5.90;3.83;;;6.70;82.10;;;;;;5052112;28;20053;-75
2021/04/24 05:21:31;;;;;;;5.97;3.30;;;6.70;82.20;;;;;;5051958;28;20043;-75
2021/04/24 05:23:57;;;;;;;5.22;3.03;;;6.70;82.70;;;;;;5053517;28;20532;-75
2021/04/24 05:26:23;;;;;;;7.28;4.57;;;6.60;82.70;;;;;;5053701;28;20052;-75
2021/04/24 05:28:49;;;;;;;4.85;3.60;;;6.60;83.70;;;;;;5053066;28;20029;-75
2021/04/24 05:31:14;;;;;;;3.88;3.20;;;6.70;82.80;;;;;;5052052;28;20577;-75
2021/04/24 05:33:40;;;;;;;5.03;3.65;;;6.60;82.50;;;;;;5053365;28;20032;-75
2021/04/24 05:36:12;;;;;;;4.90;3.25;;;6.70;82.90;;;;;;5051950;28;20463;-75
2021/04/24 05:38:37;;;;;;;6.03;3.90;;;6.70;82.80;;;;;;5051814;28;20074;-75
2021/04/24 05:41:04;;;;;;;6.43;3.35;;;6.70;82.20;;;;;;5053007;28;20029;-76
2021/04/24 05:43:29;;;;;;;5.25;3.83;;;6.80;82.30;;;;;;5053201;28;20094;-76
2021/04/24 05:45:55;;;;;;;9.05;5.22;;;6.80;82.60;;;;;;5051527;28;20472;-75
2021/04/24 05:48:21;;;;;;;5.72;4.40;;;6.80;82.50;;;;;;5051605;28;20025;-75
2021/04/24 05:50:46;;;;;;;6.13;3.80;;;6.80;83.10;;;;;;5051136;28;20033;-75
2021/04/24 05:53:12;;;;;;;6.50;3.70;;;6.80;83.10;;;;;;5051097;28;20033;-75
2021/04/24 05:55:39;;;;;;;4.57;3.45;;;6.70;83.60;;;;;;5053256;28;20029;-75
2021/04/24 05:58:05;;;;;;;6.22;3.65;;;6.70;83.90;;;;;;5050464;28;20024;-75
2021/04/24 06:00:30;;;;;;;8.25;4.22;;;6.80;84.20;;;;;;5050985;28;20028;-75
2021/04/24 06:02:56;;;;;;;5.47;3.97;;;6.80;84.10;;;;;;5051919;28;20496;-76
2021/04/24 06:05:22;;;;;;;4.30;3.67;;;6.90;84.10;;;;;;5051384;28;20100;-76
2021/04/24 06:07:48;;;;;;;4.90;3.83;;;7.00;84.70;;;;;;5051115;28;20032;-77
2021/04/24 06:10:16;;;;;;;7.78;4.25;;;7.10;84.00;;;;;;5057871;28;20024;-76
2021/04/24 06:12:42;;;;;;;13.85;8.27;;;7.20;83.60;;;;;;5056396;28;20037;-76
2021/04/24 06:15:10;;;;;;;7.57;5.13;;;7.40;83.40;;;;;;5035564;28;20124;-76
2021/04/24 06:17:36;;;;;;;10.43;5.75;;;7.50;82.90;;;;;;5053767;28;20029;-88
2021/04/24 06:20:03;;;;;;;6.15;3.92;;;7.50;82.60;;;;;;5055620;28;20110;-77
2021/04/24 06:22:29;;;;;;;7.70;4.90;;;7.50;82.10;;;;;;5054976;28;20052;-77
2021/04/24 06:24:55;;;;;;;6.40;3.78;;;7.70;82.80;;;;;;5056209;28;20055;-76
2021/04/24 06:27:22;;;;;;;6.97;3.88;;;7.80;80.90;;;;;;5055033;28;20022;-76
2021/04/24 06:29:48;;;;;;;5.95;3.50;;;7.90;81.50;;;;;;5055330;28;20029;-75
2021/04/24 06:32:14;;;;;;;6.70;3.85;;;8.00;79.90;;;;;;5055272;28;20021;-75
2021/04/24 06:34:39;;;;;;;6.05;3.70;;;8.00;80.30;;;;;;5055376;28;20116;-75
2021/04/24 06:37:06;;;;;;;5.13;3.90;;;8.10;80.20;;;;;;5056466;28;20421;-75
2021/04/24 06:39:32;;;;;;;6.88;3.85;;;8.20;79.10;;;;;;5055501;28;20039;-76
2021/04/24 06:41:59;;;;;;;6.82;4.20;;;8.10;79.00;;;;;;5056138;28;20092;-78
2021/04/24 06:44:24;;;;;;;6.05;4.22;;;8.00;78.80;;;;;;5055037;28;20057;-78
2021/04/24 06:46:50;;;;;;;9.10;4.38;;;8.10;80.40;;;;;;5055301;28;20427;-76
2021/04/24 06:49:16;;;;;;;7.22;4.47;;;8.30;79.10;;;;;;5056271;28;20464;-76
2021/04/24 06:51:41;;;;;;;5.97;3.78;;;8.30;78.80;;;;;;5055211;28;20025;-76
2021/04/24 06:54:07;;;;;;;7.10;3.55;;;8.30;78.70;;;;;;5054058;28;20044;-76
2021/04/24 06:56:33;;;;;;;4.47;3.10;;;8.20;79.70;;;;;;5056519;28;20028;-76
2021/04/24 06:58:58;;;;;;;4.65;2.90;;;7.80;80.30;;;;;;5054584;28;20025;-76
2021/04/24 07:01:24;;;;;;;7.57;3.58;;;7.60;82.20;;;;;;5054835;28;20029;-77
2021/04/24 07:03:50;;;;;;;5.35;3.22;;;7.00;86.10;;;;;;5054017;28;20024;-77
2021/04/24 07:06:16;;;;;;;5.97;3.88;;;6.90;86.20;;;;;;5056084;28;20063;-78
2021/04/24 07:08:41;;;;;;;8.85;5.35;;;6.60;87.10;;;;;;5054935;28;20029;-78
2021/04/24 07:11:09;;;;;;;8.30;5.60;;;6.40;88.30;;;;;;5055089;28;20025;-78
2021/04/24 07:13:38;;;;;;;9.43;4.35;;;6.20;89.30;;;;;;5054302;28;20029;-79
2021/04/24 07:16:05;;;;;;;6.07;3.67;;;6.20;89.80;;;;;;5034959;28;20034;-78
2021/04/24 07:18:32;;;;;;;5.97;3.55;;;6.20;89.70;;;;;;5051613;28;20422;-77
2021/04/24 07:20:58;;;;;;;5.30;3.60;;;6.10;90.20;;;;;;5054847;28;20075;-77
2021/04/24 07:23:24;;;;;;;5.90;3.58;;;6.20;90.00;;;;;;5054476;28;20382;-77
2021/04/24 07:25:49;;;;;;;5.72;3.70;;;6.20;90.20;;;;;;5054201;28;20120;-79
2021/04/24 07:28:16;;;;;;;5.60;4.00;;;6.30;90.30;;;;;;5054389;28;20025;-78
2021/04/24 07:30:42;;;;;;;5.00;3.70;;;6.40;90.00;;;;;;5053922;28;20025;-77
2021/04/24 07:33:08;;;;;;;10.02;4.22;;;6.60;88.20;;;;;;5053786;28;20410;-77
2021/04/24 07:35:34;;;;;;;6.32;3.47;;;6.70;86.90;;;;;;5055119;28;20025;-78
2021/04/24 07:38:00;;;;;;;5.28;3.67;;;6.80;86.40;;;;;;5053602;28;20021;-77
2021/04/24 07:40:25;;;;;;;6.85;4.38;;;7.00;86.30;;;;;;5053545;28;20274;-77
2021/04/24 07:42:51;;;;;;;22.45;12.50;;;7.30;86.10;;;;;;5054927;28;20498;-75
2021/04/24 07:45:17;;;;;;;8.15;5.70;;;7.50;85.30;;;;;;5036388;28;20021;-77
2021/04/24 07:47:43;;;;;;;9.98;7.95;;;7.70;83.80;;;;;;5053256;28;20017;-77
2021/04/24 07:50:10;;;;;;;5.30;4.20;;;7.70;83.50;;;;;;5052727;28;20090;-76
2021/04/24 07:52:36;;;;;;;4.57;3.30;;;7.70;83.70;;;;;;5053577;28;20033;-78
2021/04/24 07:55:03;;;;;;;4.53;3.28;;;7.80;82.80;;;;;;5053032;28;20375;-78
2021/04/24 07:57:30;;;;;;;5.90;3.40;;;7.70;81.00;;;;;;5052889;28;20036;-78
2021/04/24 07:59:56;;;;;;;4.82;3.47;;;7.50;80.80;;;;;;5053104;28;20025;-77
2021/04/24 08:02:21;;;;;;;4.47;3.25;;;7.40;80.60;;;;;;5053318;28;20032;-78
2021/04/24 08:04:47;;;;;;;4.38;3.22;;;7.30;81.10;;;;;;5053402;28;20056;-78
2021/04/24 08:07:13;;;;;;;5.05;3.40;;;7.40;82.00;;;;;;5053323;28;20029;-78
2021/04/24 08:09:40;;;;;;;5.97;3.90;;;7.60;82.00;;;;;;5052620;28;20063;-77
2021/04/24 08:12:06;;;;;;;6.75;3.67;;;7.90;80.10;;;;;;5052647;28;20116;-78
2021/04/24 08:14:32;;;;;;;4.68;3.15;;;8.10;77.70;;;;;;5052261;28;20029;-77
2021/04/24 08:16:58;;;;;;;5.93;2.88;;;8.30;76.20;;;;;;5052242;28;20075;-78
2021/04/24 08:19:25;;;;;;;4.43;3.08;;;8.30;76.20;;;;;;5051526;28;20495;-77
2021/04/24 08:21:54;;;;;;;4.47;3.00;;;8.40;77.60;;;;;;5052254;28;20368;-77
2021/04/24 08:24:20;;;;;;;5.28;2.80;;;8.70;79.00;;;;;;5052535;28;20017;-77
2021/04/24 08:26:46;;;;;;;4.00;2.78;;;8.80;75.70;;;;;;5052222;28;20040;-77
2021/04/24 08:29:12;;;;;;;4.78;3.10;;;8.90;73.40;;;;;;5053203;28;20071;-78
2021/04/24 08:31:39;;;;;;;3.47;2.30;;;9.00;71.90;;;;;;5053540;28;20036;-77
2021/04/24 08:34:04;;;;;;;4.05;2.30;;;9.10;70.40;;;;;;5052341;28;20024;-78
2021/04/24 08:36:30;;;;;;;4.13;2.40;;;9.10;71.50;;;;;;5052158;28;20021;-79
2021/04/24 08:38:56;;;;;;;4.63;3.10;;;9.10;69.60;;;;;;5052420;28;20048;-78
2021/04/24 08:41:24;;;;;;;3.22;2.55;;;9.00;69.10;;;;;;5052195;28;20032;-81
2021/04/24 08:43:55;;;;;;;4.05;2.70;;;8.90;70.40;;;;;;5052289;28;20475;-85
2021/04/24 08:46:22;;;;;;;6.38;2.70;;;8.80;70.90;;;;;;5052184;28;20047;-84
2021/04/24 08:48:48;;;;;;;4.47;2.65;;;8.60;73.40;;;;;;5052246;28;20024;-82
2021/04/24 08:51:14;;;;;;;4.78;3.38;;;8.60;73.10;;;;;;5052167;28;20028;-82
2021/04/24 08:53:40;;;;;;;3.47;2.92;;;8.40;73.20;;;;;;5051189;28;20121;-84
2021/04/24 08:56:05;;;;;;;4.82;3.03;;;8.40;73.70;;;;;;5051515;28;20478;-84
2021/04/24 08:58:31;;;;;;;6.57;2.80;;;8.30;73.50;;;;;;5052577;28;20036;-83
2021/04/24 09:00:57;;;;;;;3.90;2.90;;;8.10;75.40;;;;;;5052392;28;20441;-82
2021/04/24 09:03:22;;;;;;;6.00;3.60;;;7.90;77.10;;;;;;5052627;28;20057;-82
2021/04/24 09:05:50;;;;;;;2.42;2.17;;;8.00;76.50;;;;;;5052661;28;20060;-82
2021/04/24 09:08:26;;;;;;;3.28;2.15;;;8.10;75.60;;;;;;5052606;28;20029;-82
2021/04/24 09:10:59;;;;;;;4.85;2.20;;;8.30;74.10;;;;;;5052633;28;20158;-83
2021/04/24 09:13:28;;;;;;;2.88;2.20;;;8.50;72.50;;;;;;5052702;28;20447;-82
2021/04/24 09:15:54;;;;;;;4.80;2.53;;;8.80;70.60;;;;;;5053872;28;20021;-83
2021/04/24 09:18:22;;;;;;;3.50;2.85;;;9.00;70.30;;;;;;5052392;28;20056;-82
2021/04/24 09:20:51;;;;;;;3.00;2.35;;;9.20;70.60;;;;;;5052401;28;20035;-81
2021/04/24 09:23:28;;;;;;;3.17;2.40;;;9.50;66.40;;;;;;5052345;28;20039;-77
2021/04/24 09:26:00;;;;;;;15.07;2.70;;;9.50;64.30;;;;;;5052696;28;20108;-81
2021/04/24 09:28:37;;;;;;;10.75;2.60;;;9.00;71.90;;;;;;5052529;28;20375;-84
2021/04/24 09:31:16;;;;;;;3.58;2.78;;;8.30;77.70;;;;;;5052145;28;20029;-83
2021/04/24 09:33:47;;;;;;;9.02;2.65;;;7.40;83.20;;;;;;5052774;28;20021;-84
2021/04/24 09:36:13;;;;;;;;;;;6.80;86.10;;;;;;5052113;28;20028;-82
2021/04/24 09:38:41;;;;;;;4.57;3.20;;;6.40;89.30;;;;;;5051133;28;19904;-82
2021/04/24 09:41:10;;;;;;;4.93;3.00;;;6.00;89.60;;;;;;5050789;28;20036;-82
2021/04/24 09:44:00;;;;;;;4.40;3.13;;;5.90;89.20;;;;;;5051001;28;20093;-84
2021/04/24 09:46:48;;;;;;;4.80;2.75;;;5.80;89.30;;;;;;5051060;28;20040;-82
2021/04/24 09:49:24;;;;;;;4.68;3.40;;;5.60;90.10;;;;;;5050977;28;20037;-81
2021/04/24 09:51:56;;;;;;;4.68;3.05;;;5.50;90.00;;;;;;5052430;28;20025;-81
2021/04/24 09:54:24;;;;;;;4.28;2.80;;;5.50;89.90;;;;;;5052345;28;20017;-81
2021/04/24 09:57:05;;;;;;;2.97;2.22;;;5.50;90.10;;;;;;5051142;28;20021;-81
2021/04/24 09:59:31;;;;;;;;;;;5.60;90.20;;;;;;5051763;28;20027;-82
2021/04/24 10:02:01;;;;;;;4.25;3.47;;;5.70;90.30;;;;;;5052923;28;20003;-82
2021/04/24 10:04:27;;;;;;;2.55;2.35;;;6.00;89.80;;;;;;5051178;28;20066;-80
2021/04/24 10:06:54;;;;;;;5.65;4.60;;;6.20;88.60;;;;;;5052266;28;20025;-80
2021/04/24 10:09:30;;;;;;;2.95;2.55;;;6.40;90.60;;;;;;5052059;28;20021;-80
2021/04/24 10:12:08;;;;;;;4.15;2.67;;;6.40;87.20;;;;;;5051443;28;20023;-81
2021/04/24 10:14:43;;;;;;;8.30;5.68;;;6.60;87.90;;;;;;5052308;28;20029;-81
2021/04/24 10:17:14;;;;;;;3.55;2.63;;;6.80;87.50;;;;;;5050413;28;20112;-80
2021/04/24 10:19:41;;;;;;;2.53;2.20;;;7.00;85.30;;;;;;5050066;28;20071;-80
2021/04/24 10:22:09;;;;;;;3.95;3.08;;;7.20;82.70;;;;;;5050321;28;20479;-80
2021/04/24 10:24:36;;;;;;;6.10;2.88;;;7.40;82.80;;;;;;5031058;28;20028;-78
2021/04/24 10:27:03;;;;;;;3.38;2.40;;;7.70;82.10;;;;;;5050024;28;20029;-75
2021/04/24 10:29:29;;;;;;;2.72;2.25;;;7.90;79.60;;;;;;5050079;28;20017;-77
2021/04/24 10:31:56;;;;;;;3.88;2.53;;;8.10;75.40;;;;;;5051089;28;20090;-78
2021/04/24 10:34:22;;;;;;;6.97;3.35;;;8.20;76.10;;;;;;5050426;28;20025;-78
2021/04/24 10:36:49;;;;;;;4.43;2.55;;;8.30;76.10;;;;;;5051622;28;20013;-80
2021/04/24 10:39:25;;;;;;;2.00;1.80;;;8.50;77.40;;;;;;5051788;28;20021;-77
2021/04/24 10:41:54;;;;;;;3.05;1.70;;;8.80;67.20;;;;;;5050427;28;20021;-74
2021/04/24 10:44:20;;;;;;;2.47;1.65;;;9.00;62.20;;;;;;5051933;28;20535;-77
2021/04/24 10:46:55;;;;;;;1.70;1.60;;;9.20;59.30;;;;;;5051936;28;20025;-74
2021/04/24 10:49:27;;;;;;;1.75;1.63;;;9.30;59.70;;;;;;5041678;28;20471;-77
2021/04/24 10:52:05;;;;;;;2.28;1.60;;;9.40;58.40;;;;;;5050946;28;20017;-77
2021/04/24 10:54:37;;;;;;;3.13;2.10;;;9.40;57.50;;;;;;5050535;28;20025;-78
2021/04/24 10:57:46;;;;;;;3.28;1.90;;;9.40;56.80;;;;;;5055070;28;20021;-78
2021/04/24 11:00:47;;;;;;;4.18;2.42;;;9.60;54.30;;;;;;5047762;28;20534;-76
2021/04/24 11:03:42;;;;;;;2.55;1.75;;;9.30;55.50;;;;;;5054363;28;20021;-75
2021/04/24 11:06:16;;;;;;;2.90;2.17;;;9.50;54.70;;;;;;5044243;28;20045;-79
2021/04/24 11:08:42;;;;;;;2.67;2.10;;;9.70;53.40;;;;;;5053620;28;20063;-78
2021/04/24 11:11:16;;;;;;;3.70;2.55;;;9.70;53.70;;;;;;5053550;28;20033;-79
2021/04/24 11:13:43;;;;;;;2.88;2.17;;;9.70;53.40;;;;;;5052837;28;20017;-77
2021/04/24 11:16:14;;;;;;;2.13;1.75;;;9.60;53.00;;;;;;5054956;28;20029;-77
2021/04/24 11:18:44;;;;;;;4.60;3.00;;;9.70;52.80;;;;;;5053886;28;20094;-80
2021/04/24 11:21:23;;;;;;;2.88;2.22;;;9.80;53.70;;;;;;5055051;28;20111;-79
2021/04/24 11:23:59;;;;;;;1.80;1.70;;;9.80;53.30;;;;;;5041676;28;20087;-77
2021/04/24 11:26:34;;;;;;;4.85;1.60;;;9.90;50.10;;;;;;5053733;28;20443;-79
2021/04/24 11:29:02;;;;;;;2.78;1.88;;;10.00;49.60;;;;;;5053531;28;20091;-78
2021/04/24 11:31:59;;;;;;;4.15;1.90;;;10.20;49.50;;;;;;5052902;28;20075;-80
2021/04/24 11:34:40;;;;;;;7.28;2.55;;;10.40;46.00;;;;;;5040393;28;20029;-81
2021/04/24 11:37:15;;;;;;;5.22;2.45;;;10.30;44.60;;;;;;5051030;28;20021;-81
2021/04/24 11:40:20;;;;;;;3.67;1.88;;;10.30;44.00;;;;;;5052343;28;20032;-78
2021/04/24 11:42:59;;;;;;;2.35;1.63;;;10.40;44.10;;;;;;5049131;28;20112;-78
2021/04/24 11:45:47;;;;;;;2.28;1.70;;;10.30;45.00;;;;;;5052870;28;20116;-76
2021/04/24 11:48:37;;;;;;;2.22;1.88;;;10.30;45.20;;;;;;5049693;28;20079;-75
2021/04/24 11:51:03;;;;;;;1.90;1.77;;;10.20;45.70;;;;;;5053524;28;20474;-76
2021/04/24 11:53:46;;;;;;;11.05;2.10;;;10.10;46.00;;;;;;5054270;28;20074;-77
2021/04/24 11:56:15;;;;;;;2.55;1.60;;;10.00;46.10;;;;;;5055033;28;20063;-78
2021/04/24 11:58:44;;;;;;;1.77;1.20;;;10.00;46.10;;;;;;5054899;28;20025;-78
2021/04/24 12:01:30;;;;;;;2.35;1.70;;;10.10;44.80;;;;;;5053408;28;20028;-80
2021/04/24 12:03:56;;;;;;;1.92;1.27;;;10.30;45.70;;;;;;5054687;28;20029;-84
2021/04/24 12:06:43;;;;;;;3.45;2.00;;;10.50;44.00;;;;;;5053890;28;20039;-80
2021/04/24 12:09:11;;;;;;;6.25;3.00;;;10.40;44.10;;;;;;5048876;28;20093;-81
2021/04/24 12:11:38;;;;;;;3.80;2.40;;;10.20;43.60;;;;;;5062074;28;20450;-80
2021/04/24 12:14:04;;;;;;;3.42;2.00;;;10.10;44.50;;;;;;5067431;28;20048;-80
2021/04/24 12:16:46;;;;;;;2.03;1.67;;;10.00;45.60;;;;;;5060336;28;20033;-77
2021/04/24 12:19:26;;;;;;;1.75;1.55;;;10.10;45.80;;;;;;5049307;28;20052;-78
2021/04/24 12:22:07;;;;;;;3.53;2.28;;;10.20;44.30;;;;;;5053590;28;20025;-79
2021/04/24 12:24:35;;;;;;;2.25;1.90;;;10.50;45.20;;;;;;5053096;28;20043;-78
2021/04/24 12:27:34;;;;;;;4.25;3.10;;;10.70;45.00;;;;;;5052239;28;20112;-78
2021/04/24 12:30:05;;;;;;;2.63;1.60;;;10.90;44.60;;;;;;5051620;28;20021;-78
2021/04/24 12:32:37;;;;;;;1.48;1.33;;;11.00;42.10;;;;;;5053886;28;20029;-77
2021/04/24 12:35:25;;;;;;;1.90;1.50;;;11.20;42.30;;;;;;5045309;28;20037;-76
2021/04/24 12:38:04;;;;;;;1.90;1.60;;;11.40;42.60;;;;;;5064748;28;20025;-78
2021/04/24 12:40:32;;;;;;;2.75;2.08;;;11.60;41.50;;;;;;5042322;28;20059;-76
2021/04/24 12:43:07;;;;;;;2.03;1.80;;;11.30;41.90;;;;;;5052755;28;20107;-76
2021/04/24 12:45:34;;;;;;;3.05;2.40;;;10.90;42.80;;;;;;5052285;28;20017;-76
2021/04/24 12:48:00;;;;;;;2.35;1.40;;;10.70;43.90;;;;;;5051923;28;20035;-76
2021/04/24 12:50:39;;;;;;;4.32;1.83;;;10.70;43.30;;;;;;5052831;28;20382;-76
2021/04/24 12:53:11;;;;;;;2.08;1.80;;;10.80;43.30;;;;;;5032893;28;20610;-76
2021/04/24 12:55:39;;;;;;;3.58;1.67;;;11.00;42.00;;;;;;5052183;28;20090;-75
2021/04/24 12:58:11;;;;;;;2.30;1.42;;;11.20;42.70;;;;;;5052496;28;20115;-76
2021/04/24 13:00:48;;;;;;;1.65;1.38;;;11.60;42.20;;;;;;5052742;28;20453;-76
2021/04/24 13:03:34;;;;;;;1.88;1.42;;;12.10;41.10;;;;;;5052686;28;20375;-77